ROMMA est une association bénévole à but non lucratif. Votre soutien est indispensable : ADHERER à ROMMA ou FAIRE un DON

Granges-lès-Beaumont - (26, Drôme)

Drôme des Collines (155 m)   Longitude: 04°58'E   Latitude: 45°03'N Station partenaire n°123
 

Détail journalier du     <<     >>

Température Precipitation Humidité Pression Vent Dir Rafale Dir. rafale Ensol.
Heure (°C) (mm) (%) (hPa) (km/h) (km/h) (min)
01:00 16.107210169NNO26N0
02:00 14.907510159N18N0
03:00 13.707810157NNO13NNO0
04:00 13.407910155N13NO0
05:00 13.907710159NNO23NO0
06:00 13.007810156NE13NE0
07:00 12.508010166NNE15ENE0
08:00 14.2075101613NNE24NNE0
09:00 15.9069101615N37NNE0
10:00 17.9062101619NNO32NNO20
11:00 19.9058101517NNO34N60
12:00 21.9052101518NNO34NNO60
13:00 23.1048101519N35NNE60
14:00 23.7043101518NNO35NNE60
15:00 24.6039101420N37N60
16:00 24.7038101420N37N60
17:00 22.8045101416N32N0
18:00 22.2042101317N37N0
19:00 21.4043101318NNE34NNE0
20:00 21.6043101216NNE32NNE20
21:00 20.1048101213NNE31NNE0
22:00 18.2056101310NNE18NNE0
23:00 16.906110139N15NNE0
minuit 16.206510139N19NNO0

Graphique du 26-05-2019

 

Serveur OMMA